Jerusalem, Rhode Island
Current Conditions -  °F | °C
As of 3:53 PM on Sunday 23 Nov 2014 (Local Time) from KWST Reporting Station
Clear Clear  
Wind Chill: 51°   Ceiling: Unl
Heat Index: 51°   Visibility: 10mi
Dew Point: 39°   Wind: 7mph
Humidity: 63%   Direction: 200°SSW
Pressure: 30.16"   Gusts: NA
Location:  41.4261°N, 71.5353°W
Report Text: KWST 232053Z AUTO 20006KT 10SM CLR 11/04 A3016 RMK AO2 SLP214 T01060039 51003
Loading
Personal Weather Stations






























Interactive Weather Map New forecast layout! Learn more

10-Day Weather Forecast

Advertisements
Track Severe Weather on mobile